createdAt,value
2018-06-11T00:01:37.350Z,26.20
2018-06-11T00:04:40.442Z,26.20
2018-06-11T00:07:43.533Z,24.07
2018-06-11T00:10:46.653Z,26.33
2018-06-11T00:13:49.736Z,24.80
2018-06-11T00:16:52.838Z,25.90
2018-06-11T00:19:55.909Z,26.50
2018-06-11T00:22:59.034Z,25.63
2018-06-11T00:26:02.104Z,26.33
2018-06-11T00:29:05.193Z,26.17
2018-06-11T00:32:08.284Z,27.30
2018-06-11T00:35:11.360Z,27.03
2018-06-11T00:38:14.469Z,26.80
2018-06-11T00:41:18.356Z,25.77
2018-06-11T00:44:21.449Z,27.77
2018-06-11T00:47:24.549Z,27.17
2018-06-11T00:50:27.621Z,27.43
2018-06-11T00:53:30.706Z,27.00
2018-06-11T00:56:33.785Z,27.07
2018-06-11T00:59:36.881Z,26.80
2018-06-11T01:02:39.956Z,25.50
2018-06-11T01:05:43.029Z,25.97
2018-06-11T01:08:46.124Z,25.83
2018-06-11T01:11:49.011Z,25.10
2018-06-11T01:14:51.936Z,25.60
2018-06-11T01:17:55.029Z,24.90
2018-06-11T01:20:58.109Z,23.57
2018-06-11T01:24:01.198Z,25.27
2018-06-11T01:27:04.365Z,24.93
2018-06-11T01:30:07.225Z,24.07
2018-06-11T01:33:10.312Z,23.80
2018-06-11T01:36:13.389Z,24.97
2018-06-11T01:39:16.486Z,23.90
2018-06-11T01:42:19.582Z,24.00
2018-06-11T01:45:22.687Z,27.47
2018-06-11T01:48:25.753Z,24.50
2018-06-11T01:51:28.861Z,23.83
2018-06-11T01:54:32.045Z,23.00
2018-06-11T01:57:35.149Z,23.93
2018-06-11T02:00:38.241Z,25.23
2018-06-11T02:03:41.333Z,22.70
2018-06-11T02:06:44.409Z,22.83
2018-06-11T02:09:47.497Z,24.00
2018-06-11T02:12:50.606Z,22.53
2018-06-11T02:15:53.709Z,24.07
2018-06-11T02:18:56.806Z,24.20
2018-06-11T02:21:59.936Z,25.30
2018-06-11T02:25:02.970Z,25.70
2018-06-11T02:28:06.052Z,25.40
2018-06-11T02:31:09.154Z,24.37
2018-06-11T02:34:12.250Z,24.30
2018-06-11T02:37:15.342Z,24.83
2018-06-11T02:40:18.441Z,25.63
2018-06-11T02:43:21.519Z,26.27
2018-06-11T02:46:24.614Z,25.97
2018-06-11T02:49:27.741Z,24.27
2018-06-11T02:52:30.820Z,24.63
2018-06-11T02:55:33.905Z,25.47
2018-06-11T02:58:37.001Z,26.27
2018-06-11T03:01:40.093Z,24.57
2018-06-11T03:04:43.211Z,24.37
2018-06-11T03:07:46.289Z,24.47
2018-06-11T03:10:49.190Z,26.10
2018-06-11T03:13:52.269Z,26.53
2018-06-11T03:16:55.185Z,24.60
2018-06-11T03:19:58.265Z,24.67
2018-06-11T03:23:01.361Z,24.53
2018-06-11T03:26:04.464Z,24.03
2018-06-11T03:29:07.549Z,24.90
2018-06-11T03:32:10.706Z,24.00
2018-06-11T03:35:13.577Z,24.90
2018-06-11T03:38:16.638Z,23.90
2018-06-11T03:41:19.718Z,25.17
2018-06-11T03:44:22.799Z,24.33
2018-06-11T03:47:25.889Z,25.37
2018-06-11T03:50:28.985Z,25.30
2018-06-11T03:53:32.059Z,23.60
2018-06-11T03:56:35.152Z,24.13
2018-06-11T03:59:38.247Z,24.23
2018-06-11T04:02:41.330Z,23.97
2018-06-11T04:05:44.226Z,22.60
2018-06-11T04:08:47.321Z,22.97
2018-06-11T04:11:50.430Z,23.13
2018-06-11T04:14:53.529Z,23.17
2018-06-11T04:17:56.622Z,23.43
2018-06-11T04:20:59.705Z,25.33
2018-06-11T04:24:02.786Z,23.83
2018-06-11T04:27:05.882Z,24.77
2018-06-11T04:30:08.956Z,22.87
2018-06-11T04:33:12.038Z,22.13
2018-06-11T04:36:15.126Z,22.60
2018-06-11T04:39:18.214Z,22.83
2018-06-11T04:42:21.096Z,22.87
2018-06-11T04:45:23.976Z,22.43
2018-06-11T04:48:27.037Z,23.17
2018-06-11T04:51:30.157Z,21.67
2018-06-11T04:54:33.089Z,20.83
2018-06-11T04:57:36.170Z,21.17
2018-06-11T05:00:39.261Z,20.23
2018-06-11T05:03:42.348Z,21.67
2018-06-11T05:06:45.453Z,21.83
2018-06-11T05:09:48.576Z,20.83
2018-06-11T05:12:51.673Z,21.07
2018-06-11T05:15:54.776Z,20.30
2018-06-11T05:18:57.861Z,20.63
2018-06-11T05:22:01.030Z,21.23
2018-06-11T05:25:04.102Z,21.00
2018-06-11T05:28:07.202Z,20.20
2018-06-11T05:31:10.272Z,20.77
2018-06-11T05:34:13.378Z,20.77
2018-06-11T05:37:16.458Z,21.17
2018-06-11T05:40:19.537Z,19.90
2018-06-11T05:43:22.401Z,21.23
2018-06-11T05:46:25.276Z,20.50
2018-06-11T05:49:28.349Z,19.77
2018-06-11T05:52:31.434Z,19.60
2018-06-11T05:55:34.528Z,19.47
2018-06-11T05:58:37.614Z,19.30
2018-06-11T06:01:40.693Z,19.13
2018-06-11T06:04:43.777Z,18.80
2018-06-11T06:07:46.864Z,18.77
2018-06-11T06:10:49.941Z,18.73
2018-06-11T06:13:52.825Z,17.90
2018-06-11T06:16:55.922Z,17.70
2018-06-11T06:19:59.630Z,18.37
2018-06-11T06:23:02.778Z,18.20
2018-06-11T06:26:05.848Z,18.40
2018-06-11T06:29:08.938Z,17.63
2018-06-11T06:32:12.062Z,17.03
2018-06-11T06:35:15.149Z,18.43
2018-06-11T06:38:18.229Z,17.77
2018-06-11T06:41:21.314Z,17.07
2018-06-11T06:44:24.393Z,17.37
2018-06-11T06:47:27.487Z,17.17
2018-06-11T06:50:30.578Z,16.97
2018-06-11T06:53:33.742Z,15.87
2018-06-11T06:56:36.770Z,16.60
2018-06-11T06:59:39.860Z,17.23
2018-06-11T07:02:42.984Z,17.90
2018-06-11T07:05:46.089Z,17.53
2018-06-11T07:08:48.986Z,18.50
2018-06-11T07:11:52.085Z,17.57
2018-06-11T07:14:55.213Z,16.63
2018-06-11T07:17:58.307Z,16.53
2018-06-11T07:21:01.414Z,16.80
2018-06-11T07:24:04.553Z,18.70
2018-06-11T07:27:07.433Z,18.43
2018-06-11T07:30:10.313Z,17.60
2018-06-11T07:33:13.185Z,17.87
2018-06-11T07:36:16.165Z,17.60
2018-06-11T07:39:19.281Z,16.67
2018-06-11T07:42:22.370Z,13.80
2018-06-11T07:45:25.253Z,14.13
2018-06-11T07:48:28.325Z,14.60
2018-06-11T07:51:31.424Z,12.60
2018-06-11T07:54:34.530Z,12.27
2018-06-11T07:57:37.628Z,12.37
2018-06-11T08:00:40.529Z,13.13
2018-06-11T08:03:43.616Z,12.43
2018-06-11T08:06:46.721Z,11.23
2018-06-11T08:09:49.835Z,11.40
2018-06-11T08:12:52.910Z,10.97
2018-06-11T08:15:56.004Z,12.27
2018-06-11T08:18:59.115Z,12.90
2018-06-11T08:22:02.197Z,14.57
2018-06-11T08:25:05.310Z,15.50
2018-06-11T08:28:08.490Z,15.73
2018-06-11T08:31:11.674Z,15.47
2018-06-11T08:34:14.842Z,16.23
2018-06-11T08:37:18.102Z,16.00
2018-06-11T08:40:21.381Z,15.50
2018-06-11T08:43:24.679Z,15.10
2018-06-11T08:46:27.974Z,16.50
2018-06-11T08:49:31.271Z,19.03
2018-06-11T08:52:34.685Z,14.80
2018-06-11T08:55:38.860Z,12.50
2018-06-11T08:58:43.057Z,12.93
2018-06-11T09:01:46.989Z,12.43
2018-06-11T09:04:50.233Z,13.13
2018-06-11T09:07:53.189Z,13.00
2018-06-11T09:10:56.519Z,12.43
2018-06-11T09:13:59.477Z,12.37
2018-06-11T09:17:02.782Z,11.67
2018-06-11T09:20:06.167Z,12.00
2018-06-11T09:23:09.369Z,11.83
2018-06-11T09:26:12.570Z,11.93
2018-06-11T09:29:15.790Z,12.43
2018-06-11T09:35:28.663Z,10.53
2018-06-11T09:38:31.919Z,10.47
2018-06-11T09:41:35.119Z,9.90
2018-06-11T09:44:38.042Z,11.10
2018-06-11T09:47:41.213Z,11.00
2018-06-11T09:50:44.462Z,10.80
2018-06-11T09:53:47.866Z,10.60
2018-06-11T09:56:51.141Z,10.30
2018-06-11T09:59:54.493Z,9.90
2018-06-11T10:02:57.510Z,9.87
2018-06-11T10:06:01.868Z,9.07
2018-06-11T10:09:07.559Z,10.00
2018-06-11T10:12:10.844Z,9.00
2018-06-11T10:15:13.984Z,9.77
2018-06-11T10:18:17.226Z,9.90
2018-06-11T10:21:20.171Z,9.97
2018-06-11T10:24:23.375Z,9.43
2018-06-11T10:27:26.722Z,9.00
2018-06-11T10:30:29.962Z,10.00
2018-06-11T10:33:33.199Z,10.33
2018-06-11T10:36:36.188Z,10.50
2018-06-11T10:39:39.366Z,10.47
2018-06-11T10:42:42.581Z,10.60
2018-06-11T10:45:45.522Z,10.43
2018-06-11T10:48:48.823Z,10.33
2018-06-11T10:51:52.035Z,10.93
2018-06-11T10:54:55.178Z,11.50
2018-06-11T10:57:58.339Z,10.93
2018-06-11T11:01:01.389Z,10.37
2018-06-11T11:04:04.483Z,15.77
2018-06-11T11:07:07.782Z,12.23
2018-06-11T11:10:10.878Z,10.13
2018-06-11T11:13:13.984Z,13.77
2018-06-11T11:16:17.074Z,10.40
2018-06-11T11:19:20.142Z,10.57
2018-06-11T11:22:23.258Z,11.30
2018-06-11T11:25:26.317Z,9.73
2018-06-11T11:28:29.414Z,10.10
2018-06-11T11:31:32.490Z,10.10
2018-06-11T11:34:35.637Z,10.00
2018-06-11T11:37:38.526Z,20.57
2018-06-11T11:40:41.590Z,9.10
2018-06-11T11:43:44.673Z,8.77
2018-06-11T11:46:47.752Z,10.50
2018-06-11T11:49:50.888Z,9.90
2018-06-11T11:52:53.771Z,9.77
2018-06-11T11:55:56.849Z,10.57
2018-06-11T11:58:59.938Z,10.87
2018-06-11T12:02:03.030Z,11.47
2018-06-11T12:05:06.126Z,11.30
2018-06-11T12:08:09.209Z,10.53
2018-06-11T12:11:12.314Z,11.37
2018-06-11T12:14:15.406Z,11.60
2018-06-11T12:17:18.485Z,10.80
2018-06-11T12:20:21.576Z,10.83
2018-06-11T12:23:24.673Z,10.80
2018-06-11T12:26:27.750Z,10.80
2018-06-11T12:29:30.861Z,9.63
2018-06-11T12:32:33.953Z,10.43
2018-06-11T12:35:37.049Z,10.87
2018-06-11T12:38:44.440Z,10.00
2018-06-11T12:41:47.578Z,9.47
2018-06-11T12:44:50.669Z,9.57
2018-06-11T12:47:53.757Z,10.03
2018-06-11T12:50:56.842Z,9.87
2018-06-11T12:53:59.944Z,9.43
2018-06-11T12:57:03.042Z,10.23
2018-06-11T13:00:06.134Z,11.03
2018-06-11T13:03:09.229Z,9.03
2018-06-11T13:06:12.321Z,10.13
2018-06-11T13:09:15.417Z,10.37
2018-06-11T13:12:18.505Z,9.87
2018-06-11T13:15:21.601Z,9.93
2018-06-11T13:18:24.665Z,9.87
2018-06-11T13:21:27.801Z,9.47
2018-06-11T13:24:30.887Z,9.50
2018-06-11T13:27:33.997Z,10.47
2018-06-11T13:30:37.101Z,9.23
2018-06-11T13:33:40.127Z,9.07
2018-06-11T13:36:43.233Z,8.23
2018-06-11T13:39:46.313Z,9.07
2018-06-11T13:42:49.381Z,8.43
2018-06-11T13:45:52.458Z,8.33
2018-06-11T13:48:55.549Z,7.63
2018-06-11T13:51:58.421Z,7.87
2018-06-11T13:55:01.498Z,7.87
2018-06-11T13:58:04.675Z,7.53
2018-06-11T14:01:07.778Z,7.27
2018-06-11T14:04:25.108Z,6.50
2018-06-11T14:07:28.184Z,6.67
2018-06-11T14:10:31.306Z,6.30
2018-06-11T14:13:34.389Z,6.67
2018-06-11T14:16:37.477Z,6.30
2018-06-11T14:19:40.562Z,6.07
2018-06-11T14:22:43.637Z,6.40
2018-06-11T14:25:46.749Z,6.47
2018-06-11T14:28:49.845Z,6.73
2018-06-11T14:31:52.937Z,6.80
2018-06-11T14:34:56.050Z,6.90
2018-06-11T14:37:59.104Z,7.10
2018-06-11T14:41:02.243Z,7.23
2018-06-11T14:44:05.294Z,7.03
2018-06-11T14:47:08.357Z,7.50
2018-06-11T14:50:11.446Z,7.97
2018-06-11T14:53:14.631Z,8.47
2018-06-11T14:56:17.737Z,8.63
2018-06-11T14:59:20.865Z,7.63
2018-06-11T15:02:23.945Z,8.60
2018-06-11T15:05:27.032Z,9.10
2018-06-11T15:08:30.891Z,9.13
2018-06-11T15:11:34.016Z,8.27
2018-06-11T15:14:37.863Z,8.87
2018-06-11T15:17:41.641Z,8.90
2018-06-11T15:20:48.523Z,9.27
2018-06-11T15:23:52.351Z,9.23
2018-06-11T15:26:56.066Z,7.70
2018-06-11T15:29:59.473Z,6.80
2018-06-11T15:33:03.005Z,7.00
2018-06-11T15:36:06.647Z,6.10
2018-06-11T15:39:10.344Z,5.73
2018-06-11T15:42:20.485Z,5.43
2018-06-11T15:45:24.629Z,5.17
2018-06-11T15:48:27.789Z,6.20
2018-06-11T15:51:31.333Z,5.50
2018-06-11T15:54:34.393Z,5.83
2018-06-11T15:57:38.018Z,6.17
2018-06-11T16:00:41.818Z,6.90
2018-06-11T16:03:45.969Z,6.43
2018-06-11T16:06:49.061Z,5.40
2018-06-11T16:09:52.113Z,4.90
2018-06-11T16:12:55.205Z,5.13
2018-06-11T16:15:58.294Z,5.33
2018-06-11T16:19:02.207Z,5.17
2018-06-11T16:22:06.000Z,4.90
2018-06-11T16:25:09.853Z,4.77
2018-06-11T16:28:13.681Z,5.40
2018-06-11T16:31:17.288Z,5.03
2018-06-11T16:34:21.036Z,5.10
2018-06-11T16:37:24.724Z,5.90
2018-06-11T16:40:28.212Z,5.73
2018-06-11T16:43:32.017Z,5.70
2018-06-11T16:46:35.129Z,7.37
2018-06-11T16:49:38.216Z,6.30
2018-06-11T16:52:41.289Z,5.87
2018-06-11T16:55:44.162Z,5.87
2018-06-11T16:58:47.250Z,5.47
2018-06-11T17:01:50.337Z,7.07
2018-06-11T17:04:53.421Z,6.37
2018-06-11T17:07:56.569Z,6.90
2018-06-11T17:10:59.633Z,7.23
2018-06-11T17:14:02.495Z,6.77
2018-06-11T17:17:24.081Z,6.20
2018-06-11T17:20:27.152Z,6.47
2018-06-11T17:23:30.248Z,6.70
2018-06-11T17:26:33.358Z,6.37
2018-06-11T17:29:36.421Z,6.57
2018-06-11T17:32:39.517Z,7.47
2018-06-11T17:35:42.609Z,6.20
2018-06-11T17:38:45.712Z,7.00
2018-06-11T17:41:48.788Z,8.17
2018-06-11T17:44:51.865Z,8.27
2018-06-11T17:47:54.754Z,8.10
2018-06-11T17:50:57.600Z,6.97
2018-06-11T17:54:00.681Z,7.93
2018-06-11T17:57:03.745Z,8.97
2018-06-11T18:00:06.837Z,8.33
2018-06-11T18:03:09.931Z,7.27
2018-06-11T18:06:13.087Z,6.87
2018-06-11T18:09:16.141Z,7.87
2018-06-11T18:12:19.213Z,7.33
2018-06-11T18:15:22.290Z,7.73
2018-06-11T18:18:25.397Z,7.80
2018-06-11T18:21:28.473Z,7.30
2018-06-11T18:24:31.537Z,7.60
2018-06-11T18:27:34.972Z,7.13
2018-06-11T18:30:41.647Z,6.60
2018-06-11T18:33:44.745Z,7.10
2018-06-11T18:36:47.837Z,7.10
2018-06-11T18:39:50.957Z,7.50
2018-06-11T18:42:54.024Z,7.73
2018-06-11T18:45:57.137Z,7.40
2018-06-11T18:49:00.234Z,6.83
2018-06-11T18:52:03.305Z,7.47
2018-06-11T18:55:06.415Z,10.17
2018-06-11T18:58:09.545Z,7.30
2018-06-11T19:01:12.609Z,6.73
2018-06-11T19:04:15.712Z,6.77
2018-06-11T19:07:18.824Z,6.53
2018-06-11T19:10:21.925Z,11.60
2018-06-11T19:13:25.146Z,7.30
2018-06-11T19:16:28.322Z,7.30
2018-06-11T19:19:31.623Z,7.60
2018-06-11T19:22:34.954Z,7.47
2018-06-11T19:25:38.188Z,10.10
2018-06-11T19:28:41.149Z,8.10
2018-06-11T19:31:44.407Z,8.23
2018-06-11T19:34:47.646Z,7.10
2018-06-11T19:37:50.810Z,7.30
2018-06-11T19:40:53.990Z,7.23
2018-06-11T19:43:57.187Z,8.73
2018-06-11T19:47:05.826Z,8.00
2018-06-11T19:50:09.089Z,7.60
2018-06-11T19:53:12.200Z,7.17
2018-06-11T19:56:15.539Z,14.87
2018-06-11T19:59:18.794Z,8.07
2018-06-11T20:02:21.877Z,8.10
2018-06-11T20:05:25.002Z,8.20
2018-06-11T20:08:28.069Z,7.20
2018-06-11T20:11:31.150Z,7.37
2018-06-11T20:14:34.290Z,10.60
2018-06-11T20:17:37.353Z,8.53
2018-06-11T20:20:40.429Z,7.87
2018-06-11T20:23:43.505Z,6.70
2018-06-11T20:26:46.624Z,7.07
2018-06-11T20:29:49.721Z,6.63
2018-06-11T20:32:52.797Z,6.97
2018-06-11T20:35:55.877Z,7.30
2018-06-11T20:38:58.968Z,6.10
2018-06-11T20:42:02.056Z,6.17
2018-06-11T20:45:05.144Z,6.30
2018-06-11T20:48:08.238Z,6.00
2018-06-11T20:51:11.333Z,9.13
2018-06-11T20:54:14.490Z,6.40
2018-06-11T20:57:17.577Z,5.83
2018-06-11T21:00:20.641Z,5.83
2018-06-11T21:03:23.742Z,6.00
2018-06-11T21:06:26.837Z,6.00
2018-06-11T21:09:29.912Z,5.87
2018-06-11T21:12:33.011Z,5.60
2018-06-11T21:15:36.122Z,5.13
2018-06-11T21:18:39.189Z,6.03
2018-06-11T21:21:42.283Z,6.03
2018-06-11T21:24:45.345Z,5.90
2018-06-11T21:27:48.425Z,5.70
2018-06-11T21:30:51.517Z,5.67
2018-06-11T21:33:54.604Z,5.60
2018-06-11T21:36:57.682Z,5.77
2018-06-11T21:40:08.614Z,5.83
2018-06-11T21:43:11.709Z,6.17
2018-06-11T21:46:14.800Z,7.07
2018-06-11T21:49:17.890Z,6.53
2018-06-11T21:52:20.988Z,6.80
2018-06-11T21:55:24.053Z,5.97
2018-06-11T21:58:27.178Z,6.43
2018-06-11T22:01:30.271Z,6.17
2018-06-11T22:04:33.361Z,6.57
2018-06-11T22:07:36.452Z,6.17
2018-06-11T22:10:39.501Z,6.20
2018-06-11T22:13:42.577Z,6.47
2018-06-11T22:16:45.669Z,6.80
2018-06-11T22:19:48.743Z,6.80
2018-06-11T22:22:51.841Z,7.00
2018-06-11T22:25:54.917Z,6.80
2018-06-11T22:28:58.027Z,7.13
2018-06-11T22:32:01.117Z,6.47
2018-06-11T22:35:04.234Z,6.97
2018-06-11T22:38:07.326Z,6.50
2018-06-11T22:41:10.405Z,7.33
2018-06-11T22:44:13.481Z,6.07
2018-06-11T22:47:16.610Z,6.30
2018-06-11T22:50:19.705Z,6.63
2018-06-11T22:53:22.781Z,6.70
2018-06-11T22:56:25.865Z,6.37
2018-06-11T22:59:28.930Z,6.20
2018-06-11T23:02:32.043Z,6.60
2018-06-11T23:05:35.140Z,7.00
2018-06-11T23:08:38.241Z,6.80
2018-06-11T23:11:41.321Z,6.80
2018-06-11T23:14:44.377Z,6.40
2018-06-11T23:17:47.249Z,6.23
2018-06-11T23:20:50.306Z,7.20
2018-06-11T23:23:53.401Z,6.87
2018-06-11T23:26:56.493Z,6.80
2018-06-11T23:29:59.584Z,6.67
2018-06-11T23:33:02.681Z,6.90
2018-06-11T23:36:05.762Z,6.60
2018-06-11T23:39:08.857Z,6.57
2018-06-11T23:42:11.961Z,6.93
2018-06-11T23:45:15.045Z,7.00
2018-06-11T23:48:18.197Z,7.10
2018-06-11T23:51:21.260Z,7.27
2018-06-11T23:54:24.140Z,7.67
2018-06-11T23:57:27.225Z,7.03
